sensor_id;sensor_type;location;lat;lon;timestamp;temperature;humidity
25346;DHT22;13300;51.032;3.710;2022-07-09T00:00:24;19.60;99.90
25346;DHT22;13300;51.032;3.710;2022-07-09T00:02:50;19.60;99.90
25346;DHT22;13300;51.032;3.710;2022-07-09T00:05:15;19.60;99.90
25346;DHT22;13300;51.032;3.710;2022-07-09T00:07:41;19.50;99.90
25346;DHT22;13300;51.032;3.710;2022-07-09T00:10:07;19.50;99.90
25346;DHT22;13300;51.032;3.710;2022-07-09T00:12:33;19.50;99.90
25346;DHT22;13300;51.032;3.710;2022-07-09T00:14:58;19.40;99.90
25346;DHT22;13300;51.032;3.710;2022-07-09T00:17:24;19.60;99.90
25346;DHT22;13300;51.032;3.710;2022-07-09T00:19:51;19.60;99.90
25346;DHT22;13300;51.032;3.710;2022-07-09T00:22:17;19.50;99.90
25346;DHT22;13300;51.032;3.710;2022-07-09T00:24:43;19.40;99.90
25346;DHT22;13300;51.032;3.710;2022-07-09T00:27:09;19.40;99.90
25346;DHT22;13300;51.032;3.710;2022-07-09T00:29:34;19.30;99.90
25346;DHT22;13300;51.032;3.710;2022-07-09T00:32:00;19.40;99.90
25346;DHT22;13300;51.032;3.710;2022-07-09T00:34:26;19.30;99.90
25346;DHT22;13300;51.032;3.710;2022-07-09T00:36:51;19.40;99.90
25346;DHT22;13300;51.032;3.710;2022-07-09T00:39:17;19.30;99.90
25346;DHT22;13300;51.032;3.710;2022-07-09T00:41:45;19.20;99.90
25346;DHT22;13300;51.032;3.710;2022-07-09T00:44:10;19.20;99.90
25346;DHT22;13300;51.032;3.710;2022-07-09T00:46:36;19.20;99.90
25346;DHT22;13300;51.032;3.710;2022-07-09T00:49:02;19.20;99.90
25346;DHT22;13300;51.032;3.710;2022-07-09T00:51:30;19.00;99.90
25346;DHT22;13300;51.032;3.710;2022-07-09T00:53:56;18.90;99.90
25346;DHT22;13300;51.032;3.710;2022-07-09T00:56:25;18.80;99.90
25346;DHT22;13300;51.032;3.710;2022-07-09T00:58:53;18.60;99.90
25346;DHT22;13300;51.032;3.710;2022-07-09T01:01:19;18.50;99.90
25346;DHT22;13300;51.032;3.710;2022-07-09T01:03:44;18.50;99.90
25346;DHT22;13300;51.032;3.710;2022-07-09T01:06:10;18.40;99.90
25346;DHT22;13300;51.032;3.710;2022-07-09T01:08:36;18.50;99.90
25346;DHT22;13300;51.032;3.710;2022-07-09T01:11:02;18.60;99.90
25346;DHT22;13300;51.032;3.710;2022-07-09T01:13:28;18.50;99.90
25346;DHT22;13300;51.032;3.710;2022-07-09T01:15:54;18.50;99.90
25346;DHT22;13300;51.032;3.710;2022-07-09T01:18:20;18.50;99.90
25346;DHT22;13300;51.032;3.710;2022-07-09T01:20:46;18.50;99.90
25346;DHT22;13300;51.032;3.710;2022-07-09T01:23:11;18.60;99.90
25346;DHT22;13300;51.032;3.710;2022-07-09T01:25:39;18.70;99.90
25346;DHT22;13300;51.032;3.710;2022-07-09T01:28:06;18.60;99.90
25346;DHT22;13300;51.032;3.710;2022-07-09T01:30:33;18.70;99.90
25346;DHT22;13300;51.032;3.710;2022-07-09T01:32:59;18.80;99.90
25346;DHT22;13300;51.032;3.710;2022-07-09T01:35:25;18.80;99.90
25346;DHT22;13300;51.032;3.710;2022-07-09T01:37:51;18.70;99.90
25346;DHT22;13300;51.032;3.710;2022-07-09T01:40:17;18.70;99.90
25346;DHT22;13300;51.032;3.710;2022-07-09T01:42:43;18.70;99.90
25346;DHT22;13300;51.032;3.710;2022-07-09T01:45:09;18.70;99.90
25346;DHT22;13300;51.032;3.710;2022-07-09T01:47:35;18.70;99.90
25346;DHT22;13300;51.032;3.710;2022-07-09T01:50:01;18.70;99.90
25346;DHT22;13300;51.032;3.710;2022-07-09T01:52:28;18.60;99.90
25346;DHT22;13300;51.032;3.710;2022-07-09T01:54:54;18.60;99.90
25346;DHT22;13300;51.032;3.710;2022-07-09T01:57:20;18.50;99.90
25346;DHT22;13300;51.032;3.710;2022-07-09T01:59:45;18.40;99.90
25346;DHT22;13300;51.032;3.710;2022-07-09T02:02:11;18.50;99.90
25346;DHT22;13300;51.032;3.710;2022-07-09T02:04:36;18.50;99.90
25346;DHT22;13300;51.032;3.710;2022-07-09T02:07:02;18.60;99.90
25346;DHT22;13300;51.032;3.710;2022-07-09T02:09:28;18.60;99.90
25346;DHT22;13300;51.032;3.710;2022-07-09T02:11:54;18.60;99.90
25346;DHT22;13300;51.032;3.710;2022-07-09T02:14:19;18.60;99.90
25346;DHT22;13300;51.032;3.710;2022-07-09T02:16:46;18.60;99.90
25346;DHT22;13300;51.032;3.710;2022-07-09T02:19:11;18.50;99.90
25346;DHT22;13300;51.032;3.710;2022-07-09T02:21:37;18.40;99.90
25346;DHT22;13300;51.032;3.710;2022-07-09T02:24:02;18.60;99.90
25346;DHT22;13300;51.032;3.710;2022-07-09T02:26:28;18.50;99.90
25346;DHT22;13300;51.032;3.710;2022-07-09T02:28:58;18.60;99.90
25346;DHT22;13300;51.032;3.710;2022-07-09T02:31:24;18.60;99.90
25346;DHT22;13300;51.032;3.710;2022-07-09T02:33:50;18.60;99.90
25346;DHT22;13300;51.032;3.710;2022-07-09T02:36:16;18.60;99.90
25346;DHT22;13300;51.032;3.710;2022-07-09T02:38:41;18.70;99.90
25346;DHT22;13300;51.032;3.710;2022-07-09T02:41:07;18.80;99.90
25346;DHT22;13300;51.032;3.710;2022-07-09T02:43:33;18.80;99.90
25346;DHT22;13300;51.032;3.710;2022-07-09T02:45:58;18.70;99.90
25346;DHT22;13300;51.032;3.710;2022-07-09T02:48:24;18.80;99.90
25346;DHT22;13300;51.032;3.710;2022-07-09T02:50:53;18.70;99.90
25346;DHT22;13300;51.032;3.710;2022-07-09T02:53:19;18.70;99.90
25346;DHT22;13300;51.032;3.710;2022-07-09T02:55:45;18.70;99.90
25346;DHT22;13300;51.032;3.710;2022-07-09T02:58:11;18.70;99.90
25346;DHT22;13300;51.032;3.710;2022-07-09T03:00:38;18.60;99.90
25346;DHT22;13300;51.032;3.710;2022-07-09T03:03:07;18.60;99.90
25346;DHT22;13300;51.032;3.710;2022-07-09T03:05:34;18.50;99.90
25346;DHT22;13300;51.032;3.710;2022-07-09T03:08:00;18.50;99.90
25346;DHT22;13300;51.032;3.710;2022-07-09T03:10:26;18.40;99.90
25346;DHT22;13300;51.032;3.710;2022-07-09T03:12:52;18.50;99.90
25346;DHT22;13300;51.032;3.710;2022-07-09T03:15:17;18.50;99.90
25346;DHT22;13300;51.032;3.710;2022-07-09T03:17:44;18.50;99.90
25346;DHT22;13300;51.032;3.710;2022-07-09T03:20:10;18.50;99.90
25346;DHT22;13300;51.032;3.710;2022-07-09T03:22:36;18.40;99.90
25346;DHT22;13300;51.032;3.710;2022-07-09T03:25:02;18.50;99.90
25346;DHT22;13300;51.032;3.710;2022-07-09T03:27:29;18.40;99.90
25346;DHT22;13300;51.032;3.710;2022-07-09T03:29:54;18.30;99.90
25346;DHT22;13300;51.032;3.710;2022-07-09T03:32:20;18.30;99.90
25346;DHT22;13300;51.032;3.710;2022-07-09T03:34:47;18.30;99.90
25346;DHT22;13300;51.032;3.710;2022-07-09T03:37:13;18.10;99.90
25346;DHT22;13300;51.032;3.710;2022-07-09T03:39:39;18.10;99.90
25346;DHT22;13300;51.032;3.710;2022-07-09T03:42:05;18.10;99.90
25346;DHT22;13300;51.032;3.710;2022-07-09T03:44:33;18.10;99.90
25346;DHT22;13300;51.032;3.710;2022-07-09T03:46:59;18.00;99.90
25346;DHT22;13300;51.032;3.710;2022-07-09T03:49:25;18.20;99.90
25346;DHT22;13300;51.032;3.710;2022-07-09T03:51:51;18.20;99.90
25346;DHT22;13300;51.032;3.710;2022-07-09T03:54:17;18.20;99.90
25346;DHT22;13300;51.032;3.710;2022-07-09T03:56:43;18.20;99.90
25346;DHT22;13300;51.032;3.710;2022-07-09T03:59:09;18.20;99.90
25346;DHT22;13300;51.032;3.710;2022-07-09T04:01:34;18.30;99.90
25346;DHT22;13300;51.032;3.710;2022-07-09T04:04:00;18.20;99.90
25346;DHT22;13300;51.032;3.710;2022-07-09T04:06:26;18.20;99.90
25346;DHT22;13300;51.032;3.710;2022-07-09T04:08:51;18.30;99.90
25346;DHT22;13300;51.032;3.710;2022-07-09T04:11:17;18.30;99.90
25346;DHT22;13300;51.032;3.710;2022-07-09T04:13:43;18.30;99.90
25346;DHT22;13300;51.032;3.710;2022-07-09T04:16:08;18.30;99.90
25346;DHT22;13300;51.032;3.710;2022-07-09T04:18:35;18.30;99.90
25346;DHT22;13300;51.032;3.710;2022-07-09T04:21:01;18.30;99.90
25346;DHT22;13300;51.032;3.710;2022-07-09T04:23:27;18.20;99.90
25346;DHT22;13300;51.032;3.710;2022-07-09T04:25:53;18.20;99.90
25346;DHT22;13300;51.032;3.710;2022-07-09T04:28:19;18.20;99.90
25346;DHT22;13300;51.032;3.710;2022-07-09T04:30:45;18.20;99.90
25346;DHT22;13300;51.032;3.710;2022-07-09T04:33:11;18.20;99.90
25346;DHT22;13300;51.032;3.710;2022-07-09T04:35:37;18.20;99.90
25346;DHT22;13300;51.032;3.710;2022-07-09T04:38:03;18.10;99.90
25346;DHT22;13300;51.032;3.710;2022-07-09T04:40:29;18.20;99.90
25346;DHT22;13300;51.032;3.710;2022-07-09T04:42:55;18.30;99.90
25346;DHT22;13300;51.032;3.710;2022-07-09T04:45:21;18.30;99.90
25346;DHT22;13300;51.032;3.710;2022-07-09T04:47:47;18.40;99.90
25346;DHT22;13300;51.032;3.710;2022-07-09T04:50:12;18.50;99.90
25346;DHT22;13300;51.032;3.710;2022-07-09T04:52:38;18.50;99.90
25346;DHT22;13300;51.032;3.710;2022-07-09T04:55:05;18.60;99.90
25346;DHT22;13300;51.032;3.710;2022-07-09T04:57:31;18.60;99.90
25346;DHT22;13300;51.032;3.710;2022-07-09T05:00:00;18.70;99.90
25346;DHT22;13300;51.032;3.710;2022-07-09T05:02:26;18.80;99.90
25346;DHT22;13300;51.032;3.710;2022-07-09T05:04:52;18.90;99.90
25346;DHT22;13300;51.032;3.710;2022-07-09T05:07:18;19.10;99.90
25346;DHT22;13300;51.032;3.710;2022-07-09T05:09:44;19.10;99.90
25346;DHT22;13300;51.032;3.710;2022-07-09T05:12:09;19.10;99.90
25346;DHT22;13300;51.032;3.710;2022-07-09T05:14:39;19.30;99.90
25346;DHT22;13300;51.032;3.710;2022-07-09T05:17:05;19.30;99.90
25346;DHT22;13300;51.032;3.710;2022-07-09T05:19:32;19.40;99.90
25346;DHT22;13300;51.032;3.710;2022-07-09T05:21:58;19.50;99.90
25346;DHT22;13300;51.032;3.710;2022-07-09T05:24:23;19.70;99.90
25346;DHT22;13300;51.032;3.710;2022-07-09T05:26:49;19.80;99.90
25346;DHT22;13300;51.032;3.710;2022-07-09T05:29:15;20.00;99.90
25346;DHT22;13300;51.032;3.710;2022-07-09T05:31:41;20.10;99.90
25346;DHT22;13300;51.032;3.710;2022-07-09T05:34:06;20.20;99.90
25346;DHT22;13300;51.032;3.710;2022-07-09T05:36:33;20.10;99.90
25346;DHT22;13300;51.032;3.710;2022-07-09T05:39:00;20.30;99.90
25346;DHT22;13300;51.032;3.710;2022-07-09T05:41:26;20.30;99.90
25346;DHT22;13300;51.032;3.710;2022-07-09T05:43:53;20.30;99.90
25346;DHT22;13300;51.032;3.710;2022-07-09T05:46:19;20.40;99.90
25346;DHT22;13300;51.032;3.710;2022-07-09T05:48:45;20.50;99.90
25346;DHT22;13300;51.032;3.710;2022-07-09T05:51:11;20.50;99.90
25346;DHT22;13300;51.032;3.710;2022-07-09T05:53:37;20.60;99.90
25346;DHT22;13300;51.032;3.710;2022-07-09T05:56:02;20.70;99.90
25346;DHT22;13300;51.032;3.710;2022-07-09T05:58:28;20.90;99.90
25346;DHT22;13300;51.032;3.710;2022-07-09T06:00:54;21.10;99.90
25346;DHT22;13300;51.032;3.710;2022-07-09T06:03:19;21.10;99.90
25346;DHT22;13300;51.032;3.710;2022-07-09T06:05:45;21.20;99.90
25346;DHT22;13300;51.032;3.710;2022-07-09T06:08:11;21.30;99.90
25346;DHT22;13300;51.032;3.710;2022-07-09T06:10:37;21.40;99.90
25346;DHT22;13300;51.032;3.710;2022-07-09T06:13:03;21.60;99.90
25346;DHT22;13300;51.032;3.710;2022-07-09T06:15:29;21.50;99.90
25346;DHT22;13300;51.032;3.710;2022-07-09T06:17:54;21.60;99.90
25346;DHT22;13300;51.032;3.710;2022-07-09T06:20:20;21.70;99.90
25346;DHT22;13300;51.032;3.710;2022-07-09T06:22:46;21.60;99.90
25346;DHT22;13300;51.032;3.710;2022-07-09T06:25:12;21.60;99.90
25346;DHT22;13300;51.032;3.710;2022-07-09T06:27:38;21.90;99.90
25346;DHT22;13300;51.032;3.710;2022-07-09T06:30:06;22.20;99.90
25346;DHT22;13300;51.032;3.710;2022-07-09T06:32:32;22.50;99.90
25346;DHT22;13300;51.032;3.710;2022-07-09T06:34:58;22.70;99.90
25346;DHT22;13300;51.032;3.710;2022-07-09T06:37:23;22.80;99.90
25346;DHT22;13300;51.032;3.710;2022-07-09T06:39:49;23.00;99.90
25346;DHT22;13300;51.032;3.710;2022-07-09T06:42:17;23.10;99.90
25346;DHT22;13300;51.032;3.710;2022-07-09T06:44:43;23.20;99.90
25346;DHT22;13300;51.032;3.710;2022-07-09T06:47:10;22.90;99.90
25346;DHT22;13300;51.032;3.710;2022-07-09T06:49:36;22.70;99.90
25346;DHT22;13300;51.032;3.710;2022-07-09T06:52:03;22.50;99.90
25346;DHT22;13300;51.032;3.710;2022-07-09T06:54:29;22.60;99.90
25346;DHT22;13300;51.032;3.710;2022-07-09T06:56:55;22.70;99.90
25346;DHT22;13300;51.032;3.710;2022-07-09T06:59:23;22.90;99.90
25346;DHT22;13300;51.032;3.710;2022-07-09T07:01:49;22.90;99.90
25346;DHT22;13300;51.032;3.710;2022-07-09T07:04:15;22.60;99.90
25346;DHT22;13300;51.032;3.710;2022-07-09T07:06:47;22.60;99.90
25346;DHT22;13300;51.032;3.710;2022-07-09T07:09:16;22.50;99.90
25346;DHT22;13300;51.032;3.710;2022-07-09T07:11:44;22.70;99.90
25346;DHT22;13300;51.032;3.710;2022-07-09T07:14:11;23.00;99.90
25346;DHT22;13300;51.032;3.710;2022-07-09T07:16:36;23.20;99.90
25346;DHT22;13300;51.032;3.710;2022-07-09T07:19:02;23.50;99.90
25346;DHT22;13300;51.032;3.710;2022-07-09T07:21:28;23.60;99.90
25346;DHT22;13300;51.032;3.710;2022-07-09T07:23:53;23.60;99.90
25346;DHT22;13300;51.032;3.710;2022-07-09T07:26:19;23.70;99.90
25346;DHT22;13300;51.032;3.710;2022-07-09T07:28:44;24.00;99.90
25346;DHT22;13300;51.032;3.710;2022-07-09T07:31:10;24.20;99.90
25346;DHT22;13300;51.032;3.710;2022-07-09T07:33:36;24.40;99.90
25346;DHT22;13300;51.032;3.710;2022-07-09T07:36:01;24.90;99.90
25346;DHT22;13300;51.032;3.710;2022-07-09T07:38:27;25.20;99.90
25346;DHT22;13300;51.032;3.710;2022-07-09T07:40:53;25.20;99.90
25346;DHT22;13300;51.032;3.710;2022-07-09T07:43:19;25.30;99.90
25346;DHT22;13300;51.032;3.710;2022-07-09T07:45:45;25.30;99.90
25346;DHT22;13300;51.032;3.710;2022-07-09T07:48:11;25.30;99.90
25346;DHT22;13300;51.032;3.710;2022-07-09T07:50:36;25.10;99.90
25346;DHT22;13300;51.032;3.710;2022-07-09T07:53:05;25.10;99.90
25346;DHT22;13300;51.032;3.710;2022-07-09T07:55:31;25.30;99.90
25346;DHT22;13300;51.032;3.710;2022-07-09T07:57:57;25.40;99.90
25346;DHT22;13300;51.032;3.710;2022-07-09T08:00:23;25.50;99.90
25346;DHT22;13300;51.032;3.710;2022-07-09T08:02:49;26.10;99.90
25346;DHT22;13300;51.032;3.710;2022-07-09T08:05:15;26.60;99.90
25346;DHT22;13300;51.032;3.710;2022-07-09T08:07:41;26.60;99.90
25346;DHT22;13300;51.032;3.710;2022-07-09T08:10:07;26.30;99.90
25346;DHT22;13300;51.032;3.710;2022-07-09T08:12:33;25.90;99.90
25346;DHT22;13300;51.032;3.710;2022-07-09T08:14:58;25.60;99.90
25346;DHT22;13300;51.032;3.710;2022-07-09T08:17:24;25.40;99.90
25346;DHT22;13300;51.032;3.710;2022-07-09T08:19:50;25.30;99.90
25346;DHT22;13300;51.032;3.710;2022-07-09T08:22:16;25.20;99.90
25346;DHT22;13300;51.032;3.710;2022-07-09T08:24:42;25.10;99.90
25346;DHT22;13300;51.032;3.710;2022-07-09T08:27:07;25.20;99.90
25346;DHT22;13300;51.032;3.710;2022-07-09T08:29:34;25.20;99.90
25346;DHT22;13300;51.032;3.710;2022-07-09T08:32:00;25.00;99.90
25346;DHT22;13300;51.032;3.710;2022-07-09T08:34:26;25.00;99.90
25346;DHT22;13300;51.032;3.710;2022-07-09T08:36:51;24.80;99.90
25346;DHT22;13300;51.032;3.710;2022-07-09T08:39:17;24.70;99.90
25346;DHT22;13300;51.032;3.710;2022-07-09T08:41:43;24.90;99.90
25346;DHT22;13300;51.032;3.710;2022-07-09T08:44:11;25.40;99.90
25346;DHT22;13300;51.032;3.710;2022-07-09T08:46:37;26.40;99.90
25346;DHT22;13300;51.032;3.710;2022-07-09T08:49:03;27.50;99.90
25346;DHT22;13300;51.032;3.710;2022-07-09T08:51:30;27.70;99.90
25346;DHT22;13300;51.032;3.710;2022-07-09T08:53:56;27.50;99.90
25346;DHT22;13300;51.032;3.710;2022-07-09T08:56:22;27.10;99.90
25346;DHT22;13300;51.032;3.710;2022-07-09T08:58:48;27.00;99.90
25346;DHT22;13300;51.032;3.710;2022-07-09T09:01:15;26.80;99.90
25346;DHT22;13300;51.032;3.710;2022-07-09T09:03:42;26.60;99.90
25346;DHT22;13300;51.032;3.710;2022-07-09T09:06:10;26.70;99.90
25346;DHT22;13300;51.032;3.710;2022-07-09T09:08:36;27.10;99.90
25346;DHT22;13300;51.032;3.710;2022-07-09T09:11:03;27.10;99.90
25346;DHT22;13300;51.032;3.710;2022-07-09T09:13:29;27.30;99.90
25346;DHT22;13300;51.032;3.710;2022-07-09T09:16:05;27.30;99.90
25346;DHT22;13300;51.032;3.710;2022-07-09T09:18:31;27.30;99.90
25346;DHT22;13300;51.032;3.710;2022-07-09T09:21:04;28.10;99.90
25346;DHT22;13300;51.032;3.710;2022-07-09T09:23:45;28.40;99.90
25346;DHT22;13300;51.032;3.710;2022-07-09T09:26:16;27.80;99.90
25346;DHT22;13300;51.032;3.710;2022-07-09T09:28:59;27.50;99.90
25346;DHT22;13300;51.032;3.710;2022-07-09T09:31:33;27.60;99.90
25346;DHT22;13300;51.032;3.710;2022-07-09T09:36:36;28.10;99.90
25346;DHT22;13300;51.032;3.710;2022-07-09T09:39:19;28.50;99.90
25346;DHT22;13300;51.032;3.710;2022-07-09T09:44:18;28.20;99.90
25346;DHT22;13300;51.032;3.710;2022-07-09T09:46:45;27.80;99.90
25346;DHT22;13300;51.032;3.710;2022-07-09T09:49:13;27.70;99.90
25346;DHT22;13300;51.032;3.710;2022-07-09T09:51:56;27.40;99.90
25346;DHT22;13300;51.032;3.710;2022-07-09T09:54:22;27.00;99.90
25346;DHT22;13300;51.032;3.710;2022-07-09T09:56:49;27.70;99.90
25346;DHT22;13300;51.032;3.710;2022-07-09T09:59:16;28.70;99.90
25346;DHT22;13300;51.032;3.710;2022-07-09T10:01:43;30.00;99.40
25346;DHT22;13300;51.032;3.710;2022-07-09T10:04:10;30.50;97.50
25346;DHT22;13300;51.032;3.710;2022-07-09T10:06:37;30.00;97.80
25346;DHT22;13300;51.032;3.710;2022-07-09T10:09:04;30.00;98.30
25346;DHT22;13300;51.032;3.710;2022-07-09T10:11:41;30.10;97.70
25346;DHT22;13300;51.032;3.710;2022-07-09T10:14:13;29.80;98.10
25346;DHT22;13300;51.032;3.710;2022-07-09T10:16:40;29.90;97.20
25346;DHT22;13300;51.032;3.710;2022-07-09T10:19:06;29.60;97.40
25346;DHT22;13300;51.032;3.710;2022-07-09T10:21:39;28.90;97.90
25346;DHT22;13300;51.032;3.710;2022-07-09T10:24:07;28.80;98.20
25346;DHT22;13300;51.032;3.710;2022-07-09T10:27:03;29.30;97.90
25346;DHT22;13300;51.032;3.710;2022-07-09T10:29:30;29.00;98.20
25346;DHT22;13300;51.032;3.710;2022-07-09T10:31:56;28.90;98.20
25346;DHT22;13300;51.032;3.710;2022-07-09T10:37:04;29.80;96.90
25346;DHT22;13300;51.032;3.710;2022-07-09T10:39:31;29.30;96.60
25346;DHT22;13300;51.032;3.710;2022-07-09T10:42:02;28.50;97.80
25346;DHT22;13300;51.032;3.710;2022-07-09T10:44:35;27.90;98.60
25346;DHT22;13300;51.032;3.710;2022-07-09T10:47:02;27.70;99.20
25346;DHT22;13300;51.032;3.710;2022-07-09T10:49:28;27.90;98.50
25346;DHT22;13300;51.032;3.710;2022-07-09T10:51:56;27.70;98.60
25346;DHT22;13300;51.032;3.710;2022-07-09T10:54:22;27.20;99.10
25346;DHT22;13300;51.032;3.710;2022-07-09T10:56:48;27.00;99.50
25346;DHT22;13300;51.032;3.710;2022-07-09T10:59:17;26.90;99.90
25346;DHT22;13300;51.032;3.710;2022-07-09T11:01:43;26.90;99.90
25346;DHT22;13300;51.032;3.710;2022-07-09T11:04:09;26.50;99.90
25346;DHT22;13300;51.032;3.710;2022-07-09T11:06:47;26.00;99.90
25346;DHT22;13300;51.032;3.710;2022-07-09T11:09:13;25.90;99.90
25346;DHT22;13300;51.032;3.710;2022-07-09T11:11:41;25.50;99.90
25346;DHT22;13300;51.032;3.710;2022-07-09T11:14:09;25.20;99.90
25346;DHT22;13300;51.032;3.710;2022-07-09T11:16:35;24.80;99.90
25346;DHT22;13300;51.032;3.710;2022-07-09T11:19:18;24.70;99.90
25346;DHT22;13300;51.032;3.710;2022-07-09T11:21:44;24.60;99.90
25346;DHT22;13300;51.032;3.710;2022-07-09T11:24:20;24.70;99.90
25346;DHT22;13300;51.032;3.710;2022-07-09T11:26:50;24.70;99.90
25346;DHT22;13300;51.032;3.710;2022-07-09T11:29:17;24.80;99.90
25346;DHT22;13300;51.032;3.710;2022-07-09T11:31:50;25.00;99.90
25346;DHT22;13300;51.032;3.710;2022-07-09T11:34:18;25.00;99.90
25346;DHT22;13300;51.032;3.710;2022-07-09T11:36:45;25.00;99.90
25346;DHT22;13300;51.032;3.710;2022-07-09T11:41:50;24.30;99.90
25346;DHT22;13300;51.032;3.710;2022-07-09T11:47:12;23.60;99.90
25346;DHT22;13300;51.032;3.710;2022-07-09T11:49:46;23.50;99.90
25346;DHT22;13300;51.032;3.710;2022-07-09T11:52:17;23.40;99.90
25346;DHT22;13300;51.032;3.710;2022-07-09T11:55:06;23.30;99.90
25346;DHT22;13300;51.032;3.710;2022-07-09T11:57:34;23.50;99.90
25346;DHT22;13300;51.032;3.710;2022-07-09T12:00:01;23.90;99.90
25346;DHT22;13300;51.032;3.710;2022-07-09T12:02:37;24.40;99.90
25346;DHT22;13300;51.032;3.710;2022-07-09T12:05:05;24.50;99.90
25346;DHT22;13300;51.032;3.710;2022-07-09T12:07:32;24.60;99.90
25346;DHT22;13300;51.032;3.710;2022-07-09T12:10:09;24.80;99.90
25346;DHT22;13300;51.032;3.710;2022-07-09T12:12:36;25.00;99.90
25346;DHT22;13300;51.032;3.710;2022-07-09T12:15:04;24.80;99.90
25346;DHT22;13300;51.032;3.710;2022-07-09T12:17:31;25.00;99.90
25346;DHT22;13300;51.032;3.710;2022-07-09T12:19:58;24.80;99.90
25346;DHT22;13300;51.032;3.710;2022-07-09T12:22:24;25.10;99.90
25346;DHT22;13300;51.032;3.710;2022-07-09T12:24:51;25.20;99.90
25346;DHT22;13300;51.032;3.710;2022-07-09T12:27:18;25.10;99.90
25346;DHT22;13300;51.032;3.710;2022-07-09T12:29:44;24.70;99.90
25346;DHT22;13300;51.032;3.710;2022-07-09T12:32:09;24.20;99.90
25346;DHT22;13300;51.032;3.710;2022-07-09T12:34:35;23.90;99.90
25346;DHT22;13300;51.032;3.710;2022-07-09T12:37:01;23.90;99.90
25346;DHT22;13300;51.032;3.710;2022-07-09T12:39:27;23.80;99.90
25346;DHT22;13300;51.032;3.710;2022-07-09T12:41:53;23.80;99.90
25346;DHT22;13300;51.032;3.710;2022-07-09T12:44:19;24.10;99.90
25346;DHT22;13300;51.032;3.710;2022-07-09T12:46:45;24.50;99.90
25346;DHT22;13300;51.032;3.710;2022-07-09T12:49:11;24.80;99.90
25346;DHT22;13300;51.032;3.710;2022-07-09T12:51:37;25.40;99.90
25346;DHT22;13300;51.032;3.710;2022-07-09T12:54:02;25.70;99.60
25346;DHT22;13300;51.032;3.710;2022-07-09T12:56:28;25.60;99.60
25346;DHT22;13300;51.032;3.710;2022-07-09T12:58:54;25.40;99.70
25346;DHT22;13300;51.032;3.710;2022-07-09T13:01:19;25.20;99.80
25346;DHT22;13300;51.032;3.710;2022-07-09T13:03:45;24.70;99.90
25346;DHT22;13300;51.032;3.710;2022-07-09T13:06:11;24.40;99.90
25346;DHT22;13300;51.032;3.710;2022-07-09T13:08:55;24.50;99.90
25346;DHT22;13300;51.032;3.710;2022-07-09T13:11:21;24.80;99.90
25346;DHT22;13300;51.032;3.710;2022-07-09T13:13:47;25.00;99.90
25346;DHT22;13300;51.032;3.710;2022-07-09T13:16:12;24.80;99.90
25346;DHT22;13300;51.032;3.710;2022-07-09T13:18:38;25.20;99.70
25346;DHT22;13300;51.032;3.710;2022-07-09T13:21:04;25.30;99.30
25346;DHT22;13300;51.032;3.710;2022-07-09T13:23:30;25.90;98.30
25346;DHT22;13300;51.032;3.710;2022-07-09T13:25:57;26.00;97.60
25346;DHT22;13300;51.032;3.710;2022-07-09T13:28:23;26.20;97.40
25346;DHT22;13300;51.032;3.710;2022-07-09T13:30:48;26.60;96.80
25346;DHT22;13300;51.032;3.710;2022-07-09T13:33:17;27.20;96.40
25346;DHT22;13300;51.032;3.710;2022-07-09T13:35:42;27.50;96.20
25346;DHT22;13300;51.032;3.710;2022-07-09T13:38:09;27.10;95.30
25346;DHT22;13300;51.032;3.710;2022-07-09T13:40:34;26.90;96.50
25346;DHT22;13300;51.032;3.710;2022-07-09T13:43:00;27.40;95.30
25346;DHT22;13300;51.032;3.710;2022-07-09T13:45:26;27.80;94.80
25346;DHT22;13300;51.032;3.710;2022-07-09T13:47:55;28.10;93.60
25346;DHT22;13300;51.032;3.710;2022-07-09T13:50:21;28.20;93.60
25346;DHT22;13300;51.032;3.710;2022-07-09T13:52:50;28.30;93.50
25346;DHT22;13300;51.032;3.710;2022-07-09T13:55:15;28.20;93.90
25346;DHT22;13300;51.032;3.710;2022-07-09T13:57:41;28.30;93.50
25346;DHT22;13300;51.032;3.710;2022-07-09T14:00:08;28.30;93.40
25346;DHT22;13300;51.032;3.710;2022-07-09T14:02:34;28.50;93.20
25346;DHT22;13300;51.032;3.710;2022-07-09T14:05:01;28.50;93.60
25346;DHT22;13300;51.032;3.710;2022-07-09T14:07:27;28.20;94.40
25346;DHT22;13300;51.032;3.710;2022-07-09T14:09:53;28.20;94.60
25346;DHT22;13300;51.032;3.710;2022-07-09T14:12:18;28.10;93.70
25346;DHT22;13300;51.032;3.710;2022-07-09T14:14:44;28.20;94.00
25346;DHT22;13300;51.032;3.710;2022-07-09T14:17:10;28.30;94.60
25346;DHT22;13300;51.032;3.710;2022-07-09T14:19:37;28.40;93.20
25346;DHT22;13300;51.032;3.710;2022-07-09T14:22:03;28.30;93.00
25346;DHT22;13300;51.032;3.710;2022-07-09T14:24:28;28.40;93.10
25346;DHT22;13300;51.032;3.710;2022-07-09T14:26:54;28.40;93.40
25346;DHT22;13300;51.032;3.710;2022-07-09T14:29:20;27.90;93.10
25346;DHT22;13300;51.032;3.710;2022-07-09T14:31:46;27.80;93.80
25346;DHT22;13300;51.032;3.710;2022-07-09T14:34:12;28.00;93.50
25346;DHT22;13300;51.032;3.710;2022-07-09T14:36:38;28.10;93.00
25346;DHT22;13300;51.032;3.710;2022-07-09T14:39:04;28.50;93.10
25346;DHT22;13300;51.032;3.710;2022-07-09T14:41:30;28.50;92.80
25346;DHT22;13300;51.032;3.710;2022-07-09T14:43:56;28.60;93.00
25346;DHT22;13300;51.032;3.710;2022-07-09T14:46:22;28.70;92.70
25346;DHT22;13300;51.032;3.710;2022-07-09T14:48:48;28.10;92.50
25346;DHT22;13300;51.032;3.710;2022-07-09T14:51:14;27.30;93.10
25346;DHT22;13300;51.032;3.710;2022-07-09T14:53:40;27.10;93.60
25346;DHT22;13300;51.032;3.710;2022-07-09T14:56:06;27.00;94.20
25346;DHT22;13300;51.032;3.710;2022-07-09T14:58:32;27.20;94.20
25346;DHT22;13300;51.032;3.710;2022-07-09T15:00:58;27.70;94.10
25346;DHT22;13300;51.032;3.710;2022-07-09T15:03:24;28.20;94.00
25346;DHT22;13300;51.032;3.710;2022-07-09T15:05:50;28.60;93.70
25346;DHT22;13300;51.032;3.710;2022-07-09T15:08:16;29.00;92.80
25346;DHT22;13300;51.032;3.710;2022-07-09T15:10:41;29.50;92.90
25346;DHT22;13300;51.032;3.710;2022-07-09T15:13:07;29.70;91.70
25346;DHT22;13300;51.032;3.710;2022-07-09T15:15:33;29.50;91.80
25346;DHT22;13300;51.032;3.710;2022-07-09T15:18:00;29.00;92.30
25346;DHT22;13300;51.032;3.710;2022-07-09T15:20:26;28.40;92.30
25346;DHT22;13300;51.032;3.710;2022-07-09T15:22:55;28.00;92.80
25346;DHT22;13300;51.032;3.710;2022-07-09T15:25:21;27.80;93.70
25346;DHT22;13300;51.032;3.710;2022-07-09T15:27:47;27.40;94.60
25346;DHT22;13300;51.032;3.710;2022-07-09T15:30:13;27.00;93.80
25346;DHT22;13300;51.032;3.710;2022-07-09T15:32:40;26.20;95.20
25346;DHT22;13300;51.032;3.710;2022-07-09T15:35:07;25.40;95.70
25346;DHT22;13300;51.032;3.710;2022-07-09T15:37:34;24.70;96.60
25346;DHT22;13300;51.032;3.710;2022-07-09T15:39:59;24.30;97.80